createdAt,value
2022-11-05T00:00:10.818Z,83.43
2022-11-05T00:03:20.576Z,83.79
2022-11-05T00:06:13.083Z,83.98
2022-11-05T00:09:03.016Z,84.32
2022-11-05T00:11:53.005Z,84.05
2022-11-05T00:14:43.443Z,83.62
2022-11-05T00:17:16.050Z,83.66
2022-11-05T00:19:48.287Z,83.54
2022-11-05T00:22:37.894Z,83.77
2022-11-05T00:25:20.244Z,83.87
2022-11-05T00:27:54.093Z,84.31
2022-11-05T00:30:27.326Z,84.71
2022-11-05T00:33:03.947Z,85.32
2022-11-05T00:35:35.990Z,85.61
2022-11-05T00:38:08.032Z,85.49
2022-11-05T00:40:40.438Z,85.31
2022-11-05T00:43:30.126Z,85.37
2022-11-05T00:46:02.595Z,85.32
2022-11-05T00:48:52.866Z,85.28
2022-11-05T00:51:24.973Z,85.74
2022-11-05T00:53:57.831Z,86.06
2022-11-05T00:56:29.963Z,86.46
2022-11-05T00:59:02.143Z,86.35
2022-11-05T01:01:34.393Z,86.38
2022-11-05T01:04:06.887Z,86.58
2022-11-05T01:06:38.952Z,86.51
2022-11-05T01:09:10.923Z,86.35
2022-11-05T01:11:43.224Z,85.98
2022-11-05T01:14:17.141Z,86.02
2022-11-05T01:16:49.251Z,86.12
2022-11-05T01:19:21.741Z,85.82
2022-11-05T01:21:53.894Z,86.17
2022-11-05T01:24:25.880Z,86.64
2022-11-05T01:26:57.988Z,87.45
2022-11-05T01:29:30.009Z,87.63
2022-11-05T01:32:02.002Z,87.36
2022-11-05T01:34:34.195Z,87.06
2022-11-05T01:37:06.414Z,87.14
2022-11-05T01:39:38.455Z,87.07
2022-11-05T01:42:20.728Z,87.24
2022-11-05T01:45:06.205Z,86.77
2022-11-05T01:47:44.066Z,86.47
2022-11-05T01:50:41.339Z,85.75
2022-11-05T01:53:23.057Z,86.36
2022-11-05T01:56:02.019Z,86.15
2022-11-05T01:58:39.288Z,86.12
2022-11-05T02:01:12.153Z,85.99
2022-11-05T02:03:46.242Z,85.71
2022-11-05T02:06:20.097Z,85.86
2022-11-05T02:08:58.400Z,85.90
2022-11-05T02:11:30.648Z,86.11
2022-11-05T02:14:04.142Z,86.40
2022-11-05T02:16:42.765Z,86.66
2022-11-05T02:19:40.258Z,86.79
2022-11-05T02:22:51.039Z,86.98
2022-11-05T02:25:59.305Z,86.88
2022-11-05T02:28:53.903Z,86.69
2022-11-05T02:31:34.549Z,86.66
2022-11-05T02:34:15.780Z,86.84
2022-11-05T02:36:52.799Z,86.73
2022-11-05T02:39:34.561Z,86.87
2022-11-05T02:42:22.030Z,87.11
2022-11-05T02:45:00.014Z,86.98
2022-11-05T02:47:37.248Z,87.18
2022-11-05T02:50:21.371Z,87.11
2022-11-05T02:53:02.079Z,86.74
2022-11-05T02:55:38.922Z,86.30
2022-11-05T02:58:11.349Z,86.10
2022-11-05T03:00:53.346Z,86.32
2022-11-05T03:03:34.384Z,86.63
2022-11-05T03:06:28.479Z,86.97
2022-11-05T03:09:27.370Z,86.99
2022-11-05T03:12:10.934Z,87.33
2022-11-05T03:14:52.650Z,87.04
2022-11-05T03:17:32.224Z,87.30
2022-11-05T03:20:15.280Z,87.27
2022-11-05T03:22:52.591Z,87.73
2022-11-05T03:25:27.909Z,88.05
2022-11-05T03:28:04.962Z,88.17
2022-11-05T03:30:40.456Z,88.19
2022-11-05T03:33:18.530Z,88.46
2022-11-05T03:35:55.187Z,88.36
2022-11-05T03:38:30.327Z,88.25
2022-11-05T03:41:06.360Z,88.03
2022-11-05T03:43:44.162Z,88.49
2022-11-05T03:46:20.049Z,88.55
2022-11-05T03:48:55.906Z,89.06
2022-11-05T03:51:37.346Z,88.90
2022-11-05T03:54:10.534Z,89.19
2022-11-05T03:56:50.318Z,89.32
2022-11-05T03:59:23.454Z,89.72
2022-11-05T04:01:56.350Z,89.75
2022-11-05T04:04:28.923Z,89.64
2022-11-05T04:07:19.202Z,89.52
2022-11-05T04:10:09.458Z,89.63
2022-11-05T04:12:59.363Z,89.56
2022-11-05T04:15:52.596Z,89.57
2022-11-05T04:18:25.059Z,89.76
2022-11-05T04:21:20.415Z,89.74
2022-11-05T04:24:11.002Z,89.59
2022-11-05T04:26:45.535Z,89.76
2022-11-05T04:29:35.374Z,89.81
2022-11-05T04:32:08.235Z,90.02
2022-11-05T04:34:40.274Z,89.64
2022-11-05T04:37:12.395Z,89.93
2022-11-05T04:39:44.552Z,89.72
2022-11-05T04:42:17.040Z,89.60
2022-11-05T04:44:49.323Z,89.60
2022-11-05T04:47:21.306Z,90.19
2022-11-05T04:49:53.740Z,90.39
2022-11-05T04:52:25.853Z,89.57
2022-11-05T04:54:58.237Z,89.18
2022-11-05T04:57:30.821Z,89.56
2022-11-05T05:00:04.005Z,89.07
2022-11-05T05:02:36.281Z,89.24
2022-11-05T05:05:09.192Z,89.70
2022-11-05T05:07:42.051Z,89.85
2022-11-05T05:10:14.433Z,90.11
2022-11-05T05:12:46.518Z,89.77
2022-11-05T05:15:18.985Z,89.76
2022-11-05T05:17:54.278Z,89.56
2022-11-05T05:20:44.376Z,89.11
2022-11-05T05:38:49.517Z,86.70
2022-11-05T05:41:22.414Z,86.63
2022-11-05T05:43:54.524Z,86.79
2022-11-05T05:46:26.466Z,86.70
2022-11-05T05:48:58.630Z,86.51
2022-11-05T05:51:30.662Z,86.16
2022-11-05T05:54:02.720Z,86.15
2022-11-05T05:56:35.449Z,85.71
2022-11-05T05:59:09.132Z,85.60
2022-11-05T06:01:41.353Z,85.56
2022-11-05T06:04:14.242Z,85.86
2022-11-05T06:06:48.339Z,85.39
2022-11-05T06:09:20.736Z,84.81
2022-11-05T06:11:53.132Z,84.43
2022-11-05T06:14:25.377Z,84.15
2022-11-05T06:16:57.561Z,84.06
2022-11-05T06:19:29.972Z,83.81
2022-11-05T06:22:02.011Z,83.75
2022-11-05T06:24:34.038Z,84.11
2022-11-05T06:27:06.630Z,84.06
2022-11-05T06:29:38.914Z,84.02
2022-11-05T06:32:10.904Z,83.56
2022-11-05T06:34:43.142Z,83.73
2022-11-05T06:37:15.278Z,83.91
2022-11-05T06:39:47.808Z,83.95
2022-11-05T06:42:20.368Z,83.71
2022-11-05T06:44:52.798Z,83.94
2022-11-05T06:47:24.961Z,84.16
2022-11-05T06:49:57.915Z,84.13
2022-11-05T06:52:31.358Z,83.56
2022-11-05T06:55:03.566Z,82.96
2022-11-05T06:57:38.116Z,83.13
2022-11-05T07:00:12.901Z,83.35
2022-11-05T07:02:46.010Z,83.79
2022-11-05T07:05:19.125Z,83.70
2022-11-05T07:07:52.872Z,83.21
2022-11-05T07:10:25.430Z,83.59
2022-11-05T07:13:03.656Z,83.77
2022-11-05T07:15:39.323Z,83.97
2022-11-05T07:18:11.329Z,83.81
2022-11-05T07:20:43.349Z,83.91
2022-11-05T07:23:16.719Z,83.75
2022-11-05T07:25:49.164Z,83.44
2022-11-05T07:28:21.378Z,83.28
2022-11-05T07:30:55.206Z,83.38
2022-11-05T07:33:31.153Z,83.08
2022-11-05T07:36:06.794Z,83.20
2022-11-05T07:38:39.921Z,82.97
2022-11-05T07:41:12.609Z,83.01
2022-11-05T07:43:46.757Z,83.14
2022-11-05T07:46:23.840Z,83.69
2022-11-05T07:48:56.798Z,83.53
2022-11-05T07:51:29.386Z,83.40
2022-11-05T07:54:01.739Z,83.56
2022-11-05T07:56:33.796Z,83.51
2022-11-05T07:59:06.235Z,83.71
2022-11-05T08:01:38.504Z,83.89
2022-11-05T08:04:10.789Z,83.63
2022-11-05T08:06:42.801Z,83.65
2022-11-05T08:09:15.118Z,83.82
2022-11-05T08:11:47.671Z,83.95
2022-11-05T08:14:19.887Z,83.74
2022-11-05T08:16:51.912Z,84.10
2022-11-05T08:19:24.048Z,83.84
2022-11-05T08:21:56.064Z,84.10
2022-11-05T08:24:27.999Z,84.24
2022-11-05T08:27:00.463Z,84.36
2022-11-05T08:29:32.458Z,84.27
2022-11-05T08:32:04.447Z,84.24
2022-11-05T08:34:36.408Z,84.29
2022-11-05T08:37:08.497Z,83.76
2022-11-05T08:39:40.445Z,83.53
2022-11-05T08:42:12.712Z,83.23
2022-11-05T08:44:45.164Z,83.84
2022-11-05T08:47:17.213Z,83.41
2022-11-05T08:49:49.166Z,83.00
2022-11-05T08:52:21.232Z,82.82
2022-11-05T08:54:53.181Z,83.08
2022-11-05T08:57:25.399Z,82.66
2022-11-05T08:59:57.965Z,82.74
2022-11-05T09:02:30.133Z,83.10
2022-11-05T09:05:02.130Z,82.80
2022-11-05T09:07:34.740Z,82.65
2022-11-05T09:10:08.325Z,82.38
2022-11-05T09:12:40.558Z,82.26
2022-11-05T09:15:13.760Z,82.13
2022-11-05T09:17:45.849Z,82.46
2022-11-05T09:20:17.859Z,83.12
2022-11-05T09:22:50.394Z,82.22
2022-11-05T09:25:22.391Z,83.74
2022-11-05T09:27:54.829Z,85.46
2022-11-05T09:30:28.426Z,87.87
2022-11-05T09:33:00.820Z,82.66
2022-11-05T09:35:33.182Z,81.64
2022-11-05T09:38:05.189Z,81.22
2022-11-05T09:40:41.455Z,80.93
2022-11-05T09:43:20.835Z,81.18
2022-11-05T09:45:57.760Z,81.22
2022-11-05T09:48:33.762Z,80.74
2022-11-05T09:51:07.439Z,79.90
2022-11-05T09:53:42.515Z,79.21
2022-11-05T09:56:24.220Z,79.50
2022-11-05T09:59:00.548Z,80.02
2022-11-05T10:01:36.715Z,79.87
2022-11-05T10:04:14.525Z,79.33
2022-11-05T10:06:49.796Z,79.55
2022-11-05T10:09:25.989Z,79.61
2022-11-05T10:12:03.967Z,79.86
2022-11-05T10:14:43.551Z,79.69
2022-11-05T10:17:24.404Z,79.50
2022-11-05T10:20:02.840Z,78.90
2022-11-05T10:22:35.471Z,78.65
2022-11-05T10:25:19.297Z,78.71
2022-11-05T10:27:55.623Z,78.35
2022-11-05T10:30:27.649Z,77.81
2022-11-05T10:33:07.878Z,78.02
2022-11-05T10:35:48.850Z,77.05
2022-11-05T10:38:21.585Z,76.88
2022-11-05T10:41:05.848Z,77.10
2022-11-05T10:43:45.121Z,77.10
2022-11-05T10:46:30.169Z,77.11
2022-11-05T10:49:18.905Z,77.12
2022-11-05T10:51:58.266Z,76.59
2022-11-05T10:54:35.601Z,77.05
2022-11-05T10:57:30.230Z,76.42
2022-11-05T11:00:25.046Z,76.95
2022-11-05T11:02:59.995Z,76.97
2022-11-05T11:05:35.549Z,77.03
2022-11-05T11:08:25.465Z,77.09
2022-11-05T11:11:00.796Z,77.08
2022-11-05T11:13:52.193Z,76.75
2022-11-05T11:16:26.381Z,76.57
2022-11-05T11:19:01.181Z,76.72
2022-11-05T11:21:34.680Z,76.66
2022-11-05T11:24:19.901Z,76.71
2022-11-05T11:26:50.503Z,75.96
2022-11-05T11:29:26.719Z,76.09
2022-11-05T11:32:00.046Z,75.11
2022-11-05T11:34:34.841Z,74.83
2022-11-05T11:37:08.074Z,75.13
2022-11-05T11:39:41.640Z,75.33
2022-11-05T11:42:20.966Z,75.58
2022-11-05T11:44:54.390Z,75.69
2022-11-05T11:47:27.937Z,76.54
2022-11-05T11:50:01.621Z,76.42
2022-11-05T11:52:36.469Z,76.52
2022-11-05T11:55:21.835Z,76.51
2022-11-05T11:58:05.490Z,77.03
2022-11-05T12:00:44.973Z,76.81
2022-11-05T12:03:26.533Z,76.82
2022-11-05T12:06:06.733Z,76.54
2022-11-05T12:08:57.329Z,76.29
2022-11-05T12:11:37.547Z,76.21
2022-11-05T12:14:19.496Z,76.52
2022-11-05T12:17:15.698Z,76.14
2022-11-05T12:20:13.192Z,76.15
2022-11-05T12:23:18.402Z,75.80
2022-11-05T12:25:56.496Z,74.60
2022-11-05T12:29:18.880Z,74.53
2022-11-05T12:32:04.235Z,74.19
2022-11-05T12:34:56.059Z,73.91
2022-11-05T12:37:35.052Z,72.54
2022-11-05T12:40:26.665Z,72.57
2022-11-05T12:43:13.258Z,72.41
2022-11-05T12:45:51.301Z,72.30
2022-11-05T12:48:46.268Z,72.00
2022-11-05T12:51:33.796Z,72.03
2022-11-05T12:54:16.416Z,71.62
2022-11-05T12:56:54.610Z,71.72
2022-11-05T12:59:36.715Z,71.40
2022-11-05T13:02:23.974Z,71.86
2022-11-05T13:05:01.083Z,71.74
2022-11-05T13:07:41.092Z,71.90
2022-11-05T13:10:31.007Z,71.52
2022-11-05T13:13:13.480Z,70.91
2022-11-05T13:15:51.829Z,71.13
2022-11-05T13:18:28.403Z,70.51
2022-11-05T13:21:03.288Z,70.36
2022-11-05T13:23:41.178Z,70.53
2022-11-05T13:26:20.136Z,69.85
2022-11-05T13:28:57.144Z,69.88
2022-11-05T13:31:34.383Z,70.50
2022-11-05T13:34:11.906Z,70.31
2022-11-05T13:37:09.716Z,70.01
2022-11-05T13:39:48.037Z,69.81
2022-11-05T13:42:47.913Z,69.81
2022-11-05T13:45:40.185Z,69.39
2022-11-05T13:48:47.135Z,69.20
2022-11-05T13:51:39.194Z,67.95
2022-11-05T13:54:44.246Z,67.76
2022-11-05T13:57:54.653Z,67.65
2022-11-05T14:00:28.566Z,66.59
2022-11-05T14:03:05.191Z,64.54
2022-11-05T14:05:39.933Z,63.59
2022-11-05T14:08:17.107Z,62.56
2022-11-05T14:11:00.340Z,61.83
2022-11-05T14:13:37.801Z,61.29
2022-11-05T14:16:17.570Z,62.08
2022-11-05T14:18:54.727Z,61.74
2022-11-05T14:21:47.695Z,61.91
2022-11-05T14:24:43.392Z,63.38
2022-11-05T14:27:47.256Z,63.85
2022-11-05T14:30:47.040Z,63.83
2022-11-05T14:33:37.537Z,64.49
2022-11-05T14:36:34.400Z,64.55
2022-11-05T14:39:27.488Z,64.65
2022-11-05T14:42:05.593Z,64.10
2022-11-05T14:44:56.062Z,64.52
2022-11-05T14:47:31.647Z,64.80
2022-11-05T14:50:09.915Z,65.20
2022-11-05T14:52:51.481Z,65.27
2022-11-05T14:55:30.875Z,65.58
2022-11-05T14:58:29.281Z,65.77
2022-11-05T15:01:02.657Z,66.20
2022-11-05T15:04:02.354Z,66.27
2022-11-05T15:06:38.217Z,66.01
2022-11-05T15:09:28.045Z,66.31
2022-11-05T15:12:11.124Z,66.55
2022-11-05T15:14:54.857Z,66.33
2022-11-05T15:17:30.868Z,66.52
2022-11-05T15:20:11.913Z,66.90
2022-11-05T15:22:46.349Z,66.94
2022-11-05T15:25:22.770Z,67.30
2022-11-05T15:28:04.913Z,67.66
